Portada
METAR-TAF:

METAR-TAF

Aeropuertos :

Carroll, Iowa, Estados Unidos

latitud: 42-03N, longitud: 094-47W, altitud: 375 m

Observación

El informe se hizo hace 15 minutos, a las 21:15 UTC
Viento 18 kt del norte-noroeste
Temperatura 2°C
Humedad 87%
Presión 1028 hPa
Visibilidad: 16.1 km
Cielo cubierto a una altura de 2300 ft

METAR: KCIN 232115Z AUTO 33018KT 10SM OVC023 02/M00 A3036 RMK AO2

Hora: 16:30 (21:30 UTC)


TAF: falta

Observaciones y pronósticos meteorológicos de más de 4000 aeropuertos (mensajes METAR y TAF).

Los puntos amarillos y rojos representan las estaciones disponibles.

Ponga el ratón en el punto deseado para ver el nombre de la estación.

Haga clic para ver las observaciones y los pronósticos meteorológicos.

Para cambiar el mapa : haga clic en los botones verdes con una cruz de color negro para hacer un zoom, en el botón verde con un guión para alejar o en las flechas verdes para mapas adyacentes.


METAR-TAF: